Time;durP1;ratioP1;P1;durP2;ratioP2;P2;SDS_P1;SDS_P2;PMS_P1;PMS_P2;Temp;Humidity;BMP_temperature;BMP_pressure;BME280_temperature;BME280_humidity;BME280_pressure;Samples;Min_cycle;Max_cycle;Signal;HPM_P1;HPM_P2
2023/11/10 09:04:24;;;;;;;1.70;1.08;;;;;;;;;;4923624;29;20039;-84
2023/11/10 09:07:16;;;;;;;4.13;1.50;;;;;;;;;;4884152;29;20041;-84
2023/11/10 09:19:55;;;;;;;3.22;1.73;;;;;;;;;;4932453;23;20058;-83
2023/11/10 09:22:31;;;;;;;1.52;1.05;;;;;;;;;;4959817;29;20043;-85
2023/11/10 09:25:05;;;;;;;3.58;1.65;;;;;;;;;;4944401;29;20030;-83
2023/11/10 09:28:11;;;;;;;1.20;1.10;;;256.20;2252.80;;;;;;4944043;29;20079;-83
2023/11/10 09:41:29;;;;;;;1.48;1.13;;;281.80;2278.40;;;;;;4828970;29;20035;-83
2023/11/10 09:44:21;;;;;;;1.30;1.10;;;;;;;;;;4756986;30;20047;-80
2023/11/10 09:47:09;;;;;;;0.88;0.80;;;;;;;;;;4756415;30;20063;-81
2023/11/10 09:49:55;;;;;;;1.48;1.23;;;;;;;;;;4741661;30;20037;-84
2023/11/10 09:52:25;;;;;;;1.30;1.00;;;;;;;;;;4743401;30;20076;-82
2023/11/10 09:54:55;;;;;;;1.65;1.20;;;;;;;;;;4755558;30;20045;-81
2023/11/10 09:57:34;;;;;;;1.70;1.20;;;;;;;;;;4769571;30;20033;-82
2023/11/10 10:00:57;;;;;;;1.10;0.85;;;;;;;;;;4771436;30;20041;-82
2023/11/10 10:03:38;;;;;;;2.28;1.35;;;;;;;;;;4758397;30;20028;-82
2023/11/10 10:06:09;;;;;;;1.08;0.90;;;;;;;;;;4751379;30;20048;-82
2023/11/10 10:08:37;;;;;;;0.90;0.80;;;307.50;2304.00;;;;;;4721705;30;20080;-82
2023/11/10 10:11:22;;;;;;;0.80;0.70;;;307.40;2304.00;;;;;;4734319;30;20056;-82
2023/11/10 10:18:04;;;;;;;1.33;0.90;;;;;;;;;;4784071;30;20058;-82
2023/11/10 10:20:43;;;;;;;0.88;0.70;;;;;;;;;;4782861;29;20058;-81
2023/11/10 10:23:15;;;;;;;1.25;0.85;;;;;;;;;;4795141;30;20030;-82
2023/11/10 10:25:47;;;;;;;1.10;0.80;;;;;;;;;;4802212;29;20068;-82
2023/11/10 10:28:32;;;;;;;0.82;0.73;;;;;;;;;;4792531;29;20052;-81
2023/11/10 10:31:01;;;;;;;1.17;1.08;;;;;;;;;;4806867;30;20039;-82
2023/11/10 10:33:32;;;;;;;1.10;0.90;;;;;;;;;;4820004;29;20046;-82
2023/11/10 10:36:22;;;;;;;1.25;0.85;;;;;;;;;;4846534;29;20044;-82
2023/11/10 10:38:55;;;;;;;1.23;0.90;;;;;;;;;;4847213;29;20108;-82
2023/11/10 10:41:32;;;;;;;0.70;0.70;;;;;;;;;;4831439;29;20037;-82
2023/11/10 10:44:04;;;;;;;0.90;0.70;;;;;;;;;;4852422;29;20051;-82
2023/11/10 10:46:36;;;;;;;0.85;0.70;;;;;;;;;;4885830;29;20033;-83
2023/11/10 10:49:03;;;;;;;1.00;0.77;;;;;;;;;;4927187;29;20016;-83
2023/11/10 10:51:40;;;;;;;0.85;0.73;;;;;;;;;;4941437;29;20036;-82
2023/11/10 10:54:13;;;;;;;0.80;0.70;;;;;;;;;;4943031;29;20017;-82
2023/11/10 10:56:40;;;;;;;0.95;0.90;;;;;;;;;;4926521;29;20095;-82
2023/11/10 10:59:35;;;;;;;1.00;0.77;;;;;;;;;;4864248;29;20032;-83
2023/11/10 11:02:10;;;;;;;0.85;0.70;;;;;;;;;;4853192;29;20045;-83
2023/11/10 11:05:18;;;;;;;0.98;0.77;;;;;;;;;;4867848;29;20066;-83
2023/11/10 11:08:08;;;;;;;1.08;0.88;;;;;;;;;;5142168;23;20063;-82
2023/11/10 11:14:00;;;;;;;0.80;0.70;;;;;;;;;;4982986;28;20539;-82
2023/11/10 11:19:14;;;;;;;;;;;;;;;;;;4994890;23;20062;-82
2023/11/10 11:25:16;;;;;;;0.90;0.70;;;;;;;;;;4983019;28;20047;-86
2023/11/10 11:55:02;;;;;;;1.10;0.90;;;;;;;;;;4922686;29;20095;-80
2023/11/10 11:58:07;;;;;;;1.15;0.80;;;;;;;;;;4885999;29;20046;-83
2023/11/10 12:01:38;;;;;;;0.75;0.70;;;;;;;;;;4886306;29;20084;-85
2023/11/10 12:04:11;;;;;;;0.85;0.70;;;;;;;;;;4873001;23;20066;-83
2023/11/10 12:16:51;;;;;;;0.82;0.70;;;;;;;;;;4923576;29;20023;-85
2023/11/10 12:20:00;;;;;;;0.93;0.70;;;;;;;;;;4885961;29;20105;-83
2023/11/10 12:22:40;;;;;;;0.75;0.70;;;;;;;;;;4885562;29;20038;-84
2023/11/10 12:25:10;;;;;;;0.60;0.60;;;;;;;;;;4850744;29;20048;-77
2023/11/10 12:27:36;;;;;;;0.75;0.60;;;;;;;;;;4857793;29;20033;-80
2023/11/10 12:30:03;;;;;;;0.90;0.75;;;;;;;;;;4863146;29;20041;-80
2023/11/10 12:32:30;;;;;;;1.00;0.70;;;;;;;;;;4871676;29;20061;-78
2023/11/10 12:34:56;;;;;;;0.75;0.65;;;;;;;;;;4875910;29;20042;-81
2023/11/10 12:37:29;;;;;;;0.63;0.63;;;;;;;;;;4883797;29;20017;-85
2023/11/10 12:39:55;;;;;;;0.50;0.50;;;;;;;;;;4871315;29;20033;-83
2023/11/10 12:42:23;;;;;;;0.90;0.70;;;;;;;;;;4884894;29;20029;-83
2023/11/10 12:47:53;;;;;;;0.73;0.60;;;;;;;;;;4919096;29;20065;-77
2023/11/10 12:50:22;;;;;;;0.95;0.70;;;;;;;;;;4889978;29;20144;-80
2023/11/10 12:52:52;;;;;;;1.10;0.90;;;;;;;;;;4873270;29;20060;-80
2023/11/10 12:55:18;;;;;;;0.85;0.70;;;;;;;;;;4914130;29;20033;-78
2023/11/10 12:57:47;;;;;;;0.75;0.70;;;;;;;;;;4924653;29;20039;-78
2023/11/10 13:00:15;;;;;;;1.27;0.88;;;;;;;;;;4924815;29;20052;-78
2023/11/10 13:02:45;;;;;;;0.85;0.70;;;;;;;;;;4939664;29;20034;-78
2023/11/10 13:05:14;;;;;;;1.20;0.90;;;;;;;;;;4940398;29;20062;-78
2023/11/10 13:07:40;;;;;;;1.05;0.90;;;;;;;;;;4923459;29;20052;-78
2023/11/10 13:10:07;;;;;;;1.85;1.35;;;;;;;;;;4930003;29;20087;-79
2023/11/10 13:12:36;;;;;;;1.52;1.30;;;;;;;;;;4943816;29;20096;-81
2023/11/10 13:15:03;;;;;;;0.82;0.70;;;;;;;;;;4942672;29;20032;-79
2023/11/10 13:17:29;;;;;;;1.63;0.95;;;;;;;;;;4928022;29;20031;-78
2023/11/10 13:19:55;;;;;;;1.00;0.80;;;;;;;;;;4942970;29;20024;-77
2023/11/10 13:22:21;;;;;;;0.88;0.80;;;;;;;;;;4928026;29;20040;-78
2023/11/10 13:24:50;;;;;;;1.40;1.10;;;;;;;;;;4928334;29;20024;-79
2023/11/10 13:27:16;;;;;;;0.88;0.70;;;;;;;;;;4929130;29;20028;-78
2023/11/10 13:29:43;;;;;;;1.25;0.80;;;;;;;;;;4929513;29;20036;-78
2023/11/10 13:32:12;;;;;;;1.40;0.77;;;;;;;;;;4927761;29;20443;-77
2023/11/10 13:34:40;;;;;;;1.13;0.80;;;;;;;;;;4925774;29;20038;-77
2023/11/10 13:37:08;;;;;;;0.98;0.80;;;;;;;;;;4924690;29;20115;-77
2023/11/10 13:39:35;;;;;;;0.98;0.77;;;;;;;;;;4923815;29;20056;-78
2023/11/10 13:42:01;;;;;;;0.90;0.80;;;;;;;;;;4923839;29;20032;-78
2023/11/10 13:44:27;;;;;;;0.88;0.73;;;;;;;;;;4925871;29;20119;-80
2023/11/10 13:46:54;;;;;;;0.82;0.70;;;;;;;;;;4929546;29;20031;-81
2023/11/10 13:49:21;;;;;;;0.88;0.70;;;;;;;;;;4929436;29;20026;-79
2023/11/10 13:51:47;;;;;;;0.90;0.70;;;;;;;;;;4929289;29;20039;-79
2023/11/10 13:54:13;;;;;;;0.80;0.70;;;;;;;;;;4929922;29;20517;-79
2023/11/10 13:56:39;;;;;;;0.85;0.70;;;;;;;;;;4929603;29;20081;-79
2023/11/10 13:59:06;;;;;;;0.85;0.70;;;;;;;;;;4928783;29;20027;-78
2023/11/10 14:01:32;;;;;;;0.95;0.80;;;;;;;;;;4929206;29;20035;-78
2023/11/10 14:03:59;;;;;;;0.80;0.70;;;;;;;;;;4927595;29;20474;-78
2023/11/10 14:08:46;;;;;;;2.70;1.02;;;;;;;;;;5170406;27;20413;-83
2023/11/10 14:11:13;;;;;;;1.00;0.73;;;;;;;;;;5135990;28;20031;-83
2023/11/10 14:13:39;;;;;;;1.30;0.90;;;;;;;;;;5136800;28;20024;-82
2023/11/10 14:16:09;;;;;;;0.80;0.70;;;;;;;;;;5135744;28;20100;-80
2023/11/10 14:18:37;;;;;;;0.90;0.70;;;;;;;;;;5137054;28;20023;-83
2023/11/10 14:21:03;;;;;;;1.27;0.98;;;;;;;;;;5136447;28;20100;-80
2023/11/10 14:23:30;;;;;;;1.65;1.13;;;;;;;;;;5135007;28;20552;-84
2023/11/10 14:25:56;;;;;;;0.77;0.70;;;;;;;;;;5132847;28;20020;-84
2023/11/10 14:28:24;;;;;;;0.70;0.60;;;;;;;;;;5133133;28;20035;-80
2023/11/10 14:30:50;;;;;;;1.00;0.80;;;;;;;;;;5143710;27;20047;-78
2023/11/10 14:33:16;;;;;;;1.00;0.80;;;;;;;;;;5159975;27;20040;-85
2023/11/10 14:35:44;;;;;;;1.23;0.85;;;;;;;;;;5157929;27;20080;-81
2023/11/10 14:38:13;;;;;;;1.23;1.00;;;;;;;;;;5155859;27;20046;-82
2023/11/10 14:40:42;;;;;;;1.17;0.85;;;;;;;;;;5158330;27;20027;-79
2023/11/10 14:43:18;;;;;;;1.05;0.82;;;;;;;;;;5161140;27;20003;-81
2023/11/10 14:45:47;;;;;;;1.85;0.93;;;;;;;;;;5158120;27;20038;-80
2023/11/10 14:48:13;;;;;;;1.20;0.98;;;;;;;;;;5157181;27;20023;-81
2023/11/10 14:50:41;;;;;;;0.88;0.82;;;;;;;;;;5157415;27;20094;-80
2023/11/10 14:53:24;;;;;;;3.08;1.10;;;;;;;;;;5159648;27;20018;-79
2023/11/10 14:55:51;;;;;;;1.10;0.85;;;;;;;;;;5160269;27;20110;-83
2023/11/10 14:58:17;;;;;;;0.85;0.80;;;;;;;;;;5156812;27;20023;-80
2023/11/10 15:00:43;;;;;;;0.75;0.70;;;;;;;;;;5155919;27;20023;-82
2023/11/10 15:03:10;;;;;;;0.75;0.70;;;;;;;;;;5158371;27;20034;-81
2023/11/10 15:05:39;;;;;;;0.65;0.65;;;;;;;;;;5157090;27;20011;-83
2023/11/10 15:08:06;;;;;;;0.90;0.70;;;;;;;;;;5163419;27;20554;-80
2023/11/10 15:10:35;;;;;;;0.95;0.70;;;;;;;;;;5158396;27;20019;-79
2023/11/10 15:13:08;;;;;;;0.90;0.77;;;;;;;;;;5158574;27;20488;-80
2023/11/10 15:15:34;;;;;;;0.98;0.70;;;;;;;;;;5158388;27;20026;-81
2023/11/10 15:18:04;;;;;;;1.10;0.80;;;;;;;;;;5157494;27;20050;-87
2023/11/10 15:20:33;;;;;;;0.88;0.77;;;;;;;;;;5146523;27;20015;-82
2023/11/10 15:22:59;;;;;;;1.38;1.05;;;;;;;;;;5145524;27;20018;-81
2023/11/10 15:25:25;;;;;;;1.48;1.10;;;;;;;;;;5143376;27;20027;-80
2023/11/10 15:27:51;;;;;;;2.35;1.48;;;;;;;;;;5140323;27;20030;-81
2023/11/10 15:30:21;;;;;;;2.28;1.35;;;;;;;;;;5140515;27;20031;-79
2023/11/10 15:32:47;;;;;;;3.35;1.67;;;;;;;;;;5140206;27;20027;-79
2023/11/10 15:35:16;;;;;;;2.20;1.33;;;;;;;;;;5142643;27;20378;-81
2023/11/10 15:37:42;;;;;;;1.08;0.80;;;;;;;;;;5140388;27;20049;-81
2023/11/10 15:40:12;;;;;;;2.08;1.40;;;;;;;;;;5141579;27;20089;-78
2023/11/10 15:42:42;;;;;;;2.75;1.92;;;;;;;;;;5132916;27;20385;-80
2023/11/10 15:45:11;;;;;;;2.58;1.02;;;;;;;;;;5121563;28;20540;-81
2023/11/10 15:47:38;;;;;;;3.05;1.40;;;;;;;;;;5120168;28;20031;-82
2023/11/10 15:50:08;;;;;;;1.98;1.42;;;;;;;;;;5121762;28;20031;-78
2023/11/10 15:52:35;;;;;;;1.25;0.98;;;;;;;;;;5121875;28;20027;-85
2023/11/10 15:55:02;;;;;;;0.80;0.70;;;;;;;;;;5119534;28;20035;-83
2023/11/10 15:57:29;;;;;;;1.10;0.90;;;;;;;;;;5119780;28;20024;-80
2023/11/10 15:59:55;;;;;;;1.38;1.15;;;;;;;;;;5123757;27;20506;-81
2023/11/10 16:02:28;;;;;;;1.80;1.08;;;;;;;;;;5119661;28;20420;-81
2023/11/10 16:04:55;;;;;;;1.13;0.90;;;;;;;;;;5122264;28;20020;-83
2023/11/10 16:07:21;;;;;;;1.20;0.93;;;;;;;;;;5121009;28;20060;-81
2023/11/10 16:09:47;;;;;;;1.70;0.90;;;;;;;;;;5120758;28;20028;-82
2023/11/10 16:12:13;;;;;;;1.00;0.80;;;;;;;;;;5120907;28;20023;-82
2023/11/10 16:14:40;;;;;;;0.75;0.70;;;;;;;;;;5121618;28;20035;-81
2023/11/10 16:17:07;;;;;;;0.80;0.80;;;;;;;;;;5122046;28;20024;-81
2023/11/10 16:19:34;;;;;;;0.75;0.70;;;;;;;;;;5121307;28;20019;-83
2023/11/10 16:22:01;;;;;;;6.03;1.17;;;;;;;;;;5122230;28;20019;-83
2023/11/10 16:24:27;;;;;;;1.35;0.98;;;;;;;;;;5122287;28;20390;-82
2023/11/10 16:26:54;;;;;;;0.80;0.70;;;;;;;;;;5123505;28;20102;-81
2023/11/10 16:29:22;;;;;;;0.65;0.65;;;;;;;;;;5122143;28;20118;-84
2023/11/10 16:31:49;;;;;;;1.38;1.00;;;;;;;;;;5120496;28;20114;-83
2023/11/10 16:34:15;;;;;;;2.72;1.33;;;;;;;;;;5121505;28;20023;-83
2023/11/10 16:36:42;;;;;;;1.10;0.70;;;;;;;;;;5122347;28;20036;-78
2023/11/10 16:39:08;;;;;;;1.25;0.88;;;;;;;;;;5122966;28;20028;-80
2023/11/10 16:41:36;;;;;;;1.05;0.88;;;;;;;;;;5123441;28;20019;-79
2023/11/10 16:44:03;;;;;;;1.00;0.80;;;;;;;;;;5119696;28;20111;-84
2023/11/10 16:46:29;;;;;;;0.70;0.63;;;;;;;;;;5120357;28;20501;-82
2023/11/10 16:48:55;;;;;;;1.38;0.85;;;;;;;;;;5120044;28;20027;-84
2023/11/10 16:51:23;;;;;;;0.80;0.70;;;;;;;;;;5121252;28;20027;-86
2023/11/10 16:53:51;;;;;;;0.85;0.73;;;;;;;;;;5120342;28;20030;-84
2023/11/10 16:56:17;;;;;;;0.88;0.70;;;;;;;;;;5118149;28;20019;-80
2023/11/10 16:58:43;;;;;;;1.25;1.00;;;;;;;;;;5119175;28;20023;-83
2023/11/10 17:01:10;;;;;;;0.98;0.80;;;;;;;;;;5118957;27;20038;-81
2023/11/10 17:03:39;;;;;;;0.90;0.70;;;;;;;;;;5119572;28;20043;-83
2023/11/10 17:06:06;;;;;;;0.85;0.75;;;;;;;;;;5118907;28;20106;-81
2023/11/10 17:08:33;;;;;;;0.60;0.60;;;;;;;;;;5118979;28;20043;-82
2023/11/10 17:10:59;;;;;;;1.42;1.08;;;;;;;;;;5120332;28;20110;-81
2023/11/10 17:13:30;;;;;;;0.95;0.70;;;;;;;;;;5119554;28;20016;-79
2023/11/10 17:15:59;;;;;;;0.98;0.80;;;;;;;;;;5118702;28;20024;-78
2023/11/10 17:18:25;;;;;;;0.98;0.77;;;;;;;;;;5117326;28;20053;-78
2023/11/10 17:20:52;;;;;;;0.90;0.80;;;;;;;;;;5117777;28;20023;-81
2023/11/10 17:23:25;;;;;;;1.10;0.90;;;;;;;;;;5118688;28;20016;-80
2023/11/10 17:25:52;;;;;;;1.35;1.02;;;;;;;;;;5119023;28;20089;-83
2023/11/10 17:28:18;;;;;;;0.88;0.70;;;;;;;;;;5118052;28;20038;-80
2023/11/10 17:30:44;;;;;;;0.80;0.70;;;;;;;;;;5117657;28;20027;-83
2023/11/10 17:33:10;;;;;;;0.90;0.70;;;;;;;;;;5117343;28;20383;-80
2023/11/10 17:35:38;;;;;;;0.93;0.70;;;;;;;;;;5116825;28;20027;-79
2023/11/10 17:38:05;;;;;;;1.38;1.02;;;;;;;;;;5121060;27;20485;-80
2023/11/10 17:40:32;;;;;;;0.90;0.70;;;;;;;;;;5126003;27;20024;-82
2023/11/10 17:42:58;;;;;;;1.13;0.90;;;;;;;;;;5116132;28;20020;-82
2023/11/10 17:45:24;;;;;;;1.00;0.80;;;;;;;;;;5120053;28;20023;-79
2023/11/10 17:47:51;;;;;;;0.80;0.70;;;;;;;;;;5124143;28;20031;-81
2023/11/10 17:50:18;;;;;;;1.45;1.05;;;;;;;;;;5124838;28;20024;-80
2023/11/10 17:52:45;;;;;;;1.15;1.00;;;;;;;;;;5125468;28;20487;-82
2023/11/10 17:55:12;;;;;;;0.80;0.70;;;;;;;;;;5125196;28;20019;-78
2023/11/10 17:57:38;;;;;;;0.80;0.70;;;;;;;;;;5122157;28;20028;-79
2023/11/10 18:00:08;;;;;;;0.75;0.70;;;;;;;;;;5129432;27;20046;-82
2023/11/10 18:02:34;;;;;;;1.17;0.93;;;;;;;;;;5125445;28;20020;-84
2023/11/10 18:05:00;;;;;;;0.77;0.68;;;;;;;;;;5121829;28;20083;-83
2023/11/10 18:07:27;;;;;;;1.05;0.80;;;;;;;;;;5117353;28;20058;-84
2023/11/10 18:09:53;;;;;;;1.27;1.00;;;;;;;;;;5117209;28;20106;-82
2023/11/10 18:12:20;;;;;;;1.00;0.90;;;;;;;;;;5115598;28;20049;-79
2023/11/10 18:14:49;;;;;;;1.63;1.10;;;;;;;;;;5117424;28;20031;-81
2023/11/10 18:17:16;;;;;;;1.35;0.93;;;;;;;;;;5117263;28;20031;-85
2023/11/10 18:19:44;;;;;;;0.70;0.65;;;;;;;;;;5117670;28;20035;-82
2023/11/10 18:22:10;;;;;;;0.90;0.80;;;;;;;;;;5117141;28;20058;-82
2023/11/10 18:24:37;;;;;;;1.20;0.98;;;;;;;;;;5116530;28;20153;-85
2023/11/10 18:27:03;;;;;;;1.30;1.05;;;;;;;;;;5115299;28;20024;-83
2023/11/10 18:29:33;;;;;;;0.90;0.70;;;;;;;;;;5115236;28;20386;-79
2023/11/10 18:32:03;;;;;;;1.00;0.80;;;;;;;;;;5113626;28;20024;-85
2023/11/10 18:34:29;;;;;;;1.00;0.80;;;;;;;;;;5117139;28;20035;-83
2023/11/10 18:36:58;;;;;;;1.02;0.77;;;;;;;;;;5115876;28;20034;-82
2023/11/10 18:39:24;;;;;;;0.65;0.65;;;;;;;;;;5116117;28;20019;-81
2023/11/10 18:41:52;;;;;;;0.77;0.68;;;;;;;;;;5116988;28;20056;-87
2023/11/10 18:44:18;;;;;;;1.13;0.98;;;;;;;;;;5117087;28;20114;-82
2023/11/10 18:46:45;;;;;;;0.93;0.70;;;;;;;;;;5104263;28;20575;-81
2023/11/10 18:49:11;;;;;;;1.20;0.90;;;;;;;;;;5112549;28;20068;-83
2023/11/10 18:51:40;;;;;;;1.02;0.80;;;;;;;;;;5115297;28;20042;-82
2023/11/10 18:54:07;;;;;;;1.15;1.00;;;;;;;;;;5118017;28;20368;-84
2023/11/10 18:56:35;;;;;;;0.82;0.70;;;;;;;;;;5120116;27;20069;-81
2023/11/10 18:59:01;;;;;;;1.02;0.90;;;;;;;;;;5120253;28;20020;-81
2023/11/10 19:01:29;;;;;;;0.80;0.70;;;;;;;;;;5120651;28;20062;-83
2023/11/10 19:03:55;;;;;;;0.90;0.70;;;;;;;;;;5119992;28;20051;-82
2023/11/10 19:06:23;;;;;;;1.52;1.15;;;;;;;;;;5120229;28;20111;-82
2023/11/10 19:08:49;;;;;;;0.88;0.70;;;;;;;;;;5121089;28;20032;-85
2023/11/10 19:11:17;;;;;;;3.28;1.08;;;;;;;;;;5121754;28;20020;-85
2023/11/10 19:13:43;;;;;;;1.63;1.15;;;;;;;;;;5121802;28;20113;-83
2023/11/10 19:16:09;;;;;;;1.08;0.93;;;;;;;;;;5122699;28;20024;-86
2023/11/10 19:18:36;;;;;;;1.02;0.80;;;;;;;;;;5123918;28;20020;-81
2023/11/10 19:21:02;;;;;;;2.72;1.25;;;;;;;;;;5133891;27;20027;-83
2023/11/10 19:23:28;;;;;;;1.00;0.85;;;;;;;;;;5140853;27;20018;-82
2023/11/10 19:25:54;;;;;;;0.82;0.70;;;;;;;;;;5142597;27;20019;-85
2023/11/10 19:28:23;;;;;;;1.08;0.80;;;;;;;;;;5139709;27;20032;-83
2023/11/10 19:30:49;;;;;;;0.90;0.70;;;;;;;;;;5142953;27;20053;-86
2023/11/10 19:33:16;;;;;;;0.88;0.75;;;;;;;;;;5143618;27;20019;-81
2023/11/10 19:35:43;;;;;;;0.80;0.70;;;;;;;;;;5139924;27;20114;-84
2023/11/10 19:38:09;;;;;;;0.75;0.60;;;;;;;;;;5145968;27;20026;-79
2023/11/10 19:40:35;;;;;;;0.82;0.70;;;;;;;;;;5142719;27;20062;-83
2023/11/10 19:43:01;;;;;;;1.63;1.00;;;;;;;;;;5141058;27;20027;-81
2023/11/10 19:45:28;;;;;;;1.30;0.90;;;;;;;;;;5139071;27;20024;-81
2023/11/10 19:47:54;;;;;;;1.20;0.80;;;;;;;;;;5139591;27;20027;-82
2023/11/10 19:50:20;;;;;;;1.83;1.40;;;;;;;;;;5140806;27;20019;-85
2023/11/10 19:52:46;;;;;;;1.42;1.00;;;;;;;;;;5140951;27;20068;-81
2023/11/10 19:55:16;;;;;;;1.45;1.08;;;;;;;;;;5139766;27;20019;-80
2023/11/10 19:57:44;;;;;;;0.98;0.88;;;;;;;;;;5140165;27;20023;-84
2023/11/10 20:00:12;;;;;;;0.80;0.80;;;;;;;;;;5140395;27;20048;-85
2023/11/10 20:02:39;;;;;;;1.05;0.80;;;;;;;;;;5139436;27;20015;-83
2023/11/10 20:05:05;;;;;;;0.90;0.75;;;;;;;;;;5140072;27;20027;-84
2023/11/10 20:07:31;;;;;;;0.85;0.70;;;;;;;;;;5140189;27;20047;-83
2023/11/10 20:09:57;;;;;;;0.60;0.60;;;;;;;;;;5138430;27;20502;-82
2023/11/10 20:12:24;;;;;;;0.85;0.70;;;;;;;;;;5141207;27;20554;-86
2023/11/10 20:14:50;;;;;;;1.20;0.80;;;;;;;;;;5140003;27;20042;-84
2023/11/10 20:17:22;;;;;;;1.08;0.90;;;;;;;;;;5124422;27;20522;-84
2023/11/10 20:19:48;;;;;;;5.53;0.90;;;;;;;;;;5123184;27;20095;-84
2023/11/10 20:22:14;;;;;;;1.35;1.10;;;;;;;;;;5123576;27;20027;-85
2023/11/10 20:24:53;;;;;;;0.90;0.70;;;;;;;;;;5139763;27;20035;-88
2023/11/10 20:27:57;;;;;;;0.80;0.70;;;;;;;;;;5093053;27;20043;-87
2023/11/10 20:30:43;;;;;;;0.90;0.80;;;;;;;;;;5059369;28;20021;-86
2023/11/10 20:33:10;;;;;;;1.40;1.00;;;;;;;;;;5020082;28;20191;-84
2023/11/10 20:35:36;;;;;;;2.13;0.80;;;;;;;;;;5005503;28;20037;-84
2023/11/10 20:38:55;;;;;;;1.00;0.80;;;;;;;;;;5004270;28;20128;-85
2023/11/10 20:41:31;;;;;;;0.75;0.60;;;;;;;;;;4985145;28;20217;-86
2023/11/10 20:43:59;;;;;;;1.40;1.13;;;;;;;;;;4968746;28;20618;-83
2023/11/10 20:46:25;;;;;;;1.08;0.85;;;;;;;;;;4966570;28;20042;-85
2023/11/10 20:48:54;;;;;;;1.98;1.05;;;;;;;;;;4961769;28;20055;-84
2023/11/10 20:51:21;;;;;;;1.13;0.90;;;;;;;;;;4962167;28;20090;-84
2023/11/10 20:53:47;;;;;;;1.00;0.90;;;;;;;;;;4958966;29;20035;-84
2023/11/10 20:56:15;;;;;;;1.17;0.80;;;;;;;;;;4943583;29;20054;-84
2023/11/10 20:58:42;;;;;;;1.17;0.90;;;;;;;;;;4942053;29;20122;-82
2023/11/10 21:01:08;;;;;;;0.95;0.80;;;;;;;;;;4970750;28;20038;-83
2023/11/10 21:03:34;;;;;;;0.75;0.70;;;;;;;;;;5044273;28;20108;-78
2023/11/10 21:06:00;;;;;;;1.55;1.08;;;;;;;;;;5074081;28;20041;-80
2023/11/10 21:08:27;;;;;;;1.23;0.90;;;;;;;;;;5058485;28;20369;-84
2023/11/10 21:10:54;;;;;;;1.27;1.00;;;;;;;;;;5057117;28;20028;-78
2023/11/10 21:13:20;;;;;;;1.17;0.80;;;;;;;;;;5100222;28;20424;-79
2023/11/10 21:15:47;;;;;;;0.98;0.70;;;;;;;;;;5098913;28;20062;-82
2023/11/10 21:18:14;;;;;;;1.63;1.15;;;;;;;;;;5097691;28;20501;-81
2023/11/10 21:20:40;;;;;;;1.40;1.02;;;;;;;;;;5097355;28;20024;-80
2023/11/10 21:23:10;;;;;;;1.42;1.05;;;;;;;;;;5098515;28;20061;-81
2023/11/10 21:25:38;;;;;;;0.73;0.65;;;;;;;;;;5099349;28;20028;-84
2023/11/10 21:28:08;;;;;;;1.75;1.00;;;;;;;;;;5099040;28;20147;-84
2023/11/10 21:30:35;;;;;;;1.00;0.90;;;;;;;;;;5088153;28;20028;-86
2023/11/10 21:33:03;;;;;;;6.15;2.17;;;;;;;;;;5116780;28;20073;-82
2023/11/10 21:35:30;;;;;;;1.83;1.13;;;;;;;;;;5118651;28;20027;-81
2023/11/10 21:37:59;;;;;;;1.33;1.23;;;;;;;;;;5117340;28;20028;-84
2023/11/10 21:43:37;;;;;;;1.27;1.02;;;;;;;;;;5119275;28;20068;-86
2023/11/10 21:49:49;;;;;;;2.00;1.10;;;;;;;;;;5099362;28;20108;-87
2023/11/10 21:55:40;;;;;;;1.00;0.80;;;;;;;;;;5058513;28;20114;-87
2023/11/10 22:10:11;;;;;;;1.42;1.00;;;;;;;;;;5054468;28;20059;-86
2023/11/10 22:12:39;;;;;;;1.10;0.98;;;;;;;;;;5039157;28;20037;-84
2023/11/10 22:15:12;;;;;;;1.15;0.90;;;;;;;;;;5042534;28;20036;-86
2023/11/10 22:17:40;;;;;;;1.15;0.90;;;;;;;;;;5023773;28;20041;-82
2023/11/10 22:20:08;;;;;;;1.70;0.93;;;;;;;;;;5040828;28;20033;-84
2023/11/10 22:22:36;;;;;;;1.45;1.25;;;;;;;;;;5045387;28;20044;-86
2023/11/10 22:25:06;;;;;;;1.27;0.80;;;;;;;;;;5057620;28;20033;-87
2023/11/10 22:27:34;;;;;;;0.85;0.70;;;;;;;;;;5067766;28;20177;-88
2023/11/10 22:30:11;;;;;;;0.70;0.70;;;;;;;;;;5138175;27;20035;-87
2023/11/10 22:32:52;;;;;;;1.20;0.85;;;;;;;;;;5055939;28;20039;-88
2023/11/10 22:35:32;;;;;;;1.85;1.23;;;;;;;;;;5071014;28;20028;-87
2023/11/10 22:38:41;;;;;;;1.75;1.13;;;;;;;;;;5041822;28;20029;-88
2023/11/10 22:50:22;;;;;;;2.63;1.77;;;;;;;;;;4925845;29;19914;-84
2023/11/10 22:52:48;;;;;;;0.85;0.80;;;;;;;;;;4923887;29;20048;-85
2023/11/10 22:55:15;;;;;;;2.28;1.83;;;;;;;;;;4916663;29;20084;-85
2023/11/10 22:57:42;;;;;;;1.23;0.90;;;;;;;;;;4919452;29;20057;-84
2023/11/10 23:00:30;;;;;;;1.85;1.25;;;;;;;;;;4934702;29;20094;-82
2023/11/10 23:02:55;;;;;;;1.20;0.80;;;;;;;;;;4929487;29;20096;-81
2023/11/10 23:05:21;;;;;;;1.55;0.98;;;;;;;;;;4923244;29;20036;-82
2023/11/10 23:07:48;;;;;;;1.25;0.90;;;;;;;;;;4919521;29;20142;-84
2023/11/10 23:10:14;;;;;;;2.35;1.27;;;;;;;;;;4919862;29;20045;-86
2023/11/10 23:12:41;;;;;;;1.25;0.93;;;;;;;;;;4923053;29;20033;-84
2023/11/10 23:15:10;;;;;;;1.20;0.90;;;;;;;;;;4919090;29;20670;-86
2023/11/10 23:17:37;;;;;;;2.05;0.85;;;;;;;;;;4922584;28;20029;-85
2023/11/10 23:20:03;;;;;;;1.20;0.90;;;;;;;;;;4982989;28;20085;-87
2023/11/10 23:22:30;;;;;;;1.42;1.05;;;;;;;;;;5103327;28;20082;-86
2023/11/10 23:24:56;;;;;;;1.48;1.05;;;;;;;;;;5100495;28;20028;-86
2023/11/10 23:27:22;;;;;;;1.00;0.70;;;;;;;;;;5116077;28;20040;-80
2023/11/10 23:29:49;;;;;;;1.98;1.10;;;;;;;;;;5115784;28;20042;-83
2023/11/10 23:32:15;;;;;;;1.02;0.80;;;;;;;;;;5129318;27;20028;-83
2023/11/10 23:34:41;;;;;;;1.10;0.98;;;;;;;;;;5101802;28;20031;-83
2023/11/10 23:37:08;;;;;;;1.85;1.33;;;;;;;;;;5102366;28;20023;-84
2023/11/10 23:39:34;;;;;;;1.02;0.85;;;;;;;;;;5097636;28;20016;-86
2023/11/10 23:42:03;;;;;;;1.25;1.00;;;;;;;;;;5082305;28;20536;-80
2023/11/10 23:44:29;;;;;;;1.38;1.17;;;;;;;;;;5082296;28;20074;-85
2023/11/10 23:46:55;;;;;;;1.83;1.05;;;;;;;;;;5082947;28;20040;-82
2023/11/10 23:49:22;;;;;;;1.08;0.80;;;;;;;;;;5082464;28;20387;-86
2023/11/10 23:51:48;;;;;;;0.70;0.70;;;;;;;;;;5082737;28;20024;-81
2023/11/10 23:54:15;;;;;;;1.17;0.95;;;;;;;;;;5055786;28;20064;-80
2023/11/10 23:56:41;;;;;;;1.10;0.82;;;;;;;;;;5040457;28;20036;-83
2023/11/10 23:59:07;;;;;;;1.45;0.77;;;;;;;;;;5040641;28;20075;-80
